Time;durP1;ratioP1;P1;durP2;ratioP2;P2;SDS_P1;SDS_P2;PMS_P1;PMS_P2;Temp;Humidity;BMP_temperature;BMP_pressure;BME280_temperature;BME280_humidity;BME280_pressure;Samples;Min_cycle;Max_cycle;Signal;HPM_P1;HPM_P2
2022/07/16 00:02:17;;;;;;;6.27;2.77;;;;;;;18.02;48.83;98508.81;5054404;28;20541;-69
2022/07/16 00:04:44;;;;;;;3.77;2.63;;;;;;;18.02;48.65;98513.38;5054260;28;20296;-70
2022/07/16 00:07:10;;;;;;;5.10;2.90;;;;;;;17.99;48.20;98516.56;5054135;28;20233;-70
2022/07/16 00:09:37;;;;;;;3.53;2.57;;;;;;;17.99;48.34;98513.88;5053945;28;20320;-69
2022/07/16 00:12:04;;;;;;;4.67;2.70;;;;;;;17.95;49.74;98518.13;5053644;28;20296;-70
2022/07/16 00:14:30;;;;;;;3.43;2.50;;;;;;;17.84;49.88;98511.03;5054054;28;20299;-70
2022/07/16 00:16:57;;;;;;;4.87;2.70;;;;;;;17.90;48.79;98512.69;5054434;28;20566;-69
2022/07/16 00:19:23;;;;;;;2.90;2.57;;;;;;;17.75;49.33;98513.38;5054089;28;20328;-70
2022/07/16 00:21:53;;;;;;;4.97;2.70;;;;;;;17.77;49.30;98513.94;5053726;28;20811;-70
2022/07/16 00:24:20;;;;;;;4.80;3.10;;;;;;;17.79;49.21;98517.19;5054189;28;20209;-69
2022/07/16 00:26:47;;;;;;;3.30;2.40;;;;;;;17.77;48.41;98516.63;5053929;28;20225;-70
2022/07/16 00:29:15;;;;;;;2.87;2.60;;;;;;;17.70;49.08;98513.34;5053843;28;20227;-69
2022/07/16 00:31:42;;;;;;;2.93;2.40;;;;;;;17.64;49.01;98513.53;5053598;28;20619;-69
2022/07/16 00:34:09;;;;;;;3.23;2.50;;;;;;;17.70;49.04;98513.34;5053556;28;20567;-70
2022/07/16 00:36:37;;;;;;;4.60;2.83;;;;;;;17.69;49.63;98514.38;5053824;28;20280;-69
2022/07/16 00:39:06;;;;;;;4.00;2.70;;;;;;;17.51;50.33;98516.59;5053676;28;20239;-70
2022/07/16 00:41:33;;;;;;;3.57;2.20;;;;;;;17.41;50.64;98516.50;5053754;28;20209;-69
2022/07/16 00:44:05;;;;;;;5.00;3.90;;;;;;;17.49;49.97;98521.41;5053476;28;20219;-69
2022/07/16 00:46:32;;;;;;;4.03;3.07;;;;;;;17.42;50.81;98512.75;5053580;28;20215;-70
2022/07/16 00:48:59;;;;;;;2.60;2.40;;;;;;;17.43;49.90;98511.66;5053486;28;20316;-69
2022/07/16 00:51:26;;;;;;;3.10;2.90;;;;;;;17.53;49.59;98517.16;5053659;28;20232;-69
2022/07/16 00:53:54;;;;;;;3.40;2.70;;;;;;;17.50;49.37;98513.09;5053397;28;20295;-70
2022/07/16 00:56:21;;;;;;;4.20;3.00;;;;;;;17.45;49.64;98521.09;5053124;28;20623;-69
2022/07/16 00:58:49;;;;;;;3.37;2.57;;;;;;;17.47;48.89;98520.88;5053019;28;20737;-70
2022/07/16 01:01:16;;;;;;;5.97;2.70;;;;;;;17.38;49.64;98520.44;5053445;28;20292;-69
2022/07/16 01:03:44;;;;;;;3.07;2.20;;;;;;;17.38;49.57;98519.66;5053088;28;20639;-70
2022/07/16 01:06:12;;;;;;;3.83;2.60;;;;;;;17.34;49.33;98518.53;5053040;28;20625;-69
2022/07/16 01:08:45;;;;;;;6.50;2.60;;;;;;;17.37;48.93;98521.50;5053292;28;20232;-69
2022/07/16 01:11:14;;;;;;;2.77;2.33;;;;;;;17.41;49.14;98516.50;5053405;28;20190;-69
2022/07/16 01:13:43;;;;;;;4.53;2.80;;;;;;;17.37;49.27;98516.13;5053278;28;20213;-69
2022/07/16 01:16:10;;;;;;;4.50;2.63;;;;;;;17.27;50.43;98524.09;5053344;28;20205;-70
2022/07/16 01:18:38;;;;;;;3.07;2.30;;;;;;;17.23;49.98;98520.25;5053289;28;20225;-69
2022/07/16 01:21:05;;;;;;;2.50;2.30;;;;;;;17.17;50.72;98525.81;5053054;28;20205;-70
2022/07/16 01:23:31;;;;;;;2.70;2.50;;;;;;;17.17;50.06;98523.13;5054887;28;20208;-70
2022/07/16 01:25:58;;;;;;;4.90;2.50;;;;;;;17.21;49.86;98518.88;5057308;28;20309;-69
2022/07/16 01:28:24;;;;;;;3.50;2.40;;;;;;;17.13;49.97;98522.84;5057191;28;20240;-70
2022/07/16 01:30:51;;;;;;;4.97;2.57;;;;;;;17.23;49.60;98522.94;5057281;28;20213;-70
2022/07/16 01:33:23;;;;;;;4.40;2.43;;;;;;;17.20;49.75;98526.13;5056933;28;20207;-70
2022/07/16 01:35:51;;;;;;;5.33;2.73;;;;;;;17.20;49.43;98525.34;5056944;28;20683;-69
2022/07/16 01:38:18;;;;;;;3.83;2.43;;;;;;;17.12;49.31;98529.28;5057133;28;20229;-69
2022/07/16 01:40:44;;;;;;;4.43;2.67;;;;;;;17.03;50.20;98521.88;5057165;28;20212;-69
2022/07/16 01:43:22;;;;;;;3.63;2.40;;;;;;;17.06;49.89;98530.25;5057076;28;20220;-69
2022/07/16 01:45:48;;;;;;;2.73;2.30;;;;;;;16.94;50.29;98523.38;5057226;28;20276;-69
2022/07/16 01:48:16;;;;;;;4.80;2.40;;;;;;;16.91;50.54;98524.69;5056800;28;20229;-70
2022/07/16 01:50:43;;;;;;;4.97;2.40;;;;;;;16.77;51.10;98518.03;5056617;28;20686;-69
2022/07/16 01:53:11;;;;;;;2.80;2.33;;;;;;;16.95;50.16;98519.63;5056918;28;20216;-69
2022/07/16 01:55:38;;;;;;;3.80;2.77;;;;;;;16.89;50.65;98520.63;5056883;28;20205;-70
2022/07/16 01:58:06;;;;;;;3.23;2.37;;;;;;;16.84;50.92;98521.38;5056705;28;20292;-69
2022/07/16 02:00:34;;;;;;;3.60;2.70;;;;;;;16.87;50.22;98523.53;5057258;28;20220;-70
2022/07/16 02:03:00;;;;;;;5.43;2.40;;;;;;;16.81;50.24;98516.47;5056713;28;20572;-69
2022/07/16 02:05:27;;;;;;;3.53;2.43;;;;;;;16.84;50.28;98516.00;5056767;28;20555;-69
2022/07/16 02:07:53;;;;;;;4.63;2.77;;;;;;;16.81;51.12;98513.81;5056536;28;20316;-69
2022/07/16 02:10:20;;;;;;;4.17;2.20;;;;;;;16.76;51.14;98516.41;5056569;28;20468;-69
2022/07/16 02:12:46;;;;;;;3.63;2.43;;;;;;;16.77;50.55;98518.03;5056548;28;20208;-69
2022/07/16 02:15:13;;;;;;;3.50;2.10;;;;;;;16.67;51.36;98517.91;5056216;28;20730;-69
2022/07/16 02:17:40;;;;;;;2.50;2.30;;;;;;;16.60;51.39;98519.94;5056492;28;20296;-70
2022/07/16 02:20:08;;;;;;;2.50;2.17;;;;;;;16.53;51.41;98521.97;5055986;28;20236;-70
2022/07/16 02:22:35;;;;;;;2.50;2.30;;;;;;;16.55;51.22;98521.75;5056294;28;20271;-69
2022/07/16 02:25:03;;;;;;;4.97;2.37;;;;;;;16.55;52.33;98522.53;5056326;28;20201;-69
2022/07/16 02:27:29;;;;;;;3.50;2.17;;;;;;;16.50;50.97;98522.47;5056199;28;20229;-69
2022/07/16 02:29:56;;;;;;;3.90;2.60;;;;;;;16.44;51.39;98528.81;5056184;28;20220;-69
2022/07/16 02:32:22;;;;;;;6.23;2.20;;;;;;;16.45;51.98;98521.56;5055867;28;20205;-69
2022/07/16 02:34:49;;;;;;;2.83;2.37;;;;;;;16.35;51.80;98522.19;5055313;28;20673;-69
2022/07/16 02:37:15;;;;;;;3.20;2.50;;;;;;;16.39;52.49;98525.19;5055771;28;20619;-69
2022/07/16 02:39:42;;;;;;;2.90;2.00;;;;;;;16.44;52.36;98523.44;5055602;28;20794;-69
2022/07/16 02:42:08;;;;;;;4.10;2.10;;;;;;;16.42;52.21;98522.06;5055739;28;20731;-69
2022/07/16 02:44:35;;;;;;;3.40;2.40;;;;;;;16.42;52.38;98506.75;5055956;28;20208;-69
2022/07/16 02:47:01;;;;;;;3.80;2.50;;;;;;;16.39;52.65;98520.66;5055817;28;20316;-69
2022/07/16 02:49:27;;;;;;;2.50;2.30;;;;;;;16.16;53.83;98518.13;5055803;28;20326;-69
2022/07/16 02:51:54;;;;;;;2.63;2.37;;;;;;;16.09;53.21;98525.50;5055516;28;20300;-69
2022/07/16 02:54:20;;;;;;;3.07;2.40;;;;;;;16.09;53.31;98530.88;5055771;28;20205;-69
2022/07/16 02:56:47;;;;;;;2.37;2.00;;;;;;;16.00;53.83;98536.88;5055386;28;20694;-69
2022/07/16 02:59:13;;;;;;;4.63;2.30;;;;;;;15.96;53.80;98535.75;5055381;28;20326;-69
2022/07/16 03:01:39;;;;;;;2.60;2.40;;;;;;;15.79;54.95;98533.00;5055615;28;20209;-69
2022/07/16 03:04:06;;;;;;;3.37;2.40;;;;;;;15.90;54.01;98526.78;5055293;28;20201;-69
2022/07/16 03:06:33;;;;;;;3.33;2.10;;;;;;;15.85;54.47;98532.06;5055171;28;20205;-69
2022/07/16 03:08:59;;;;;;;4.20;2.40;;;;;;;15.84;54.33;98535.78;5054957;28;20232;-69
2022/07/16 03:11:25;;;;;;;4.07;2.20;;;;;;;15.86;54.26;98533.69;5055197;28;20205;-70
2022/07/16 03:13:52;;;;;;;3.80;2.50;;;;;;;15.83;54.33;98531.47;5055228;28;20201;-69
2022/07/16 03:16:18;;;;;;;2.30;2.10;;;;;;;15.98;53.48;98531.78;5055211;28;20579;-69
2022/07/16 03:18:44;;;;;;;3.50;2.60;;;;;;;15.81;53.90;98527.41;5054822;28;20224;-69
2022/07/16 03:21:11;;;;;;;4.17;2.20;;;;;;;15.89;54.07;98530.53;5054915;28;20783;-69
2022/07/16 03:23:37;;;;;;;5.10;2.43;;;;;;;15.88;53.98;98523.53;5055176;28;20296;-69
2022/07/16 03:26:04;;;;;;;2.87;2.27;;;;;;;15.88;53.83;98523.53;5054845;28;20646;-69
2022/07/16 03:28:30;;;;;;;5.17;2.40;;;;;;;15.93;53.56;98533.53;5054930;28;20448;-69
2022/07/16 03:30:57;;;;;;;3.47;2.40;;;;;;;15.78;54.63;98526.03;5055017;28;20209;-69
2022/07/16 03:33:23;;;;;;;3.83;2.40;;;;;;;15.66;54.67;98530.66;5054643;28;20300;-69
2022/07/16 03:35:49;;;;;;;4.23;2.20;;;;;;;15.61;54.97;98529.72;5054658;28;20295;-69
2022/07/16 03:40:59;;;;;;;3.23;2.20;;;;;;;15.63;55.66;98535.66;5054723;28;20176;-69
2022/07/16 03:43:28;;;;;;;2.63;2.20;;;;;;;15.51;55.89;98530.34;5054149;28;20749;-70
2022/07/16 03:45:55;;;;;;;3.43;2.60;;;;;;;15.50;55.95;98525.22;5053723;28;20205;-69
2022/07/16 03:48:22;;;;;;;4.43;2.33;;;;;;;15.50;56.05;98539.44;5054170;28;20660;-70
2022/07/16 03:50:48;;;;;;;4.00;1.93;;;;;;;15.42;55.71;98539.00;5054242;28;20209;-70
2022/07/16 03:53:14;;;;;;;3.80;2.30;;;;;;;15.41;55.95;98538.19;5054443;28;20209;-69
2022/07/16 03:55:41;;;;;;;2.47;2.23;;;;;;;15.34;56.54;98536.69;5054220;28;20216;-70
2022/07/16 03:58:07;;;;;;;2.43;2.20;;;;;;;15.14;57.61;98547.75;5054380;28;20291;-70
2022/07/16 04:00:33;;;;;;;4.37;2.50;;;;;;;15.17;57.70;98551.84;5054449;28;20205;-69
2022/07/16 04:03:00;;;;;;;3.67;2.23;;;;;;;15.10;58.35;98551.16;5055237;28;20296;-70
2022/07/16 04:05:26;;;;;;;3.83;2.60;;;;;;;15.19;58.52;98557.78;5054817;28;20728;-69
2022/07/16 04:07:53;;;;;;;3.07;2.80;;;;;;;15.14;59.33;98555.81;5053935;28;20221;-70
2022/07/16 04:10:19;;;;;;;4.33;2.20;;;;;;;15.30;58.04;98557.75;5053801;28;20719;-69
2022/07/16 04:12:45;;;;;;;4.63;2.43;;;;;;;15.26;58.53;98555.78;5054130;28;20293;-69
2022/07/16 04:15:12;;;;;;;4.37;2.53;;;;;;;15.32;58.71;98560.19;5054842;28;20213;-69
2022/07/16 04:17:38;;;;;;;4.53;2.70;;;;;;;15.36;58.90;98566.72;5053741;28;20205;-70
2022/07/16 04:20:05;;;;;;;4.23;2.47;;;;;;;15.29;59.31;98563.34;5053941;28;20229;-70
2022/07/16 04:22:32;;;;;;;4.17;2.63;;;;;;;15.47;58.29;98568.59;5053637;28;20566;-70
2022/07/16 04:24:58;;;;;;;5.43;2.50;;;;;;;15.48;58.82;98565.66;5054825;28;20212;-69
2022/07/16 04:27:25;;;;;;;3.03;2.60;;;;;;;15.44;59.42;98572.56;5054087;28;20232;-69
2022/07/16 04:29:51;;;;;;;4.60;3.07;;;;;;;15.42;60.54;98563.91;5054104;28;20684;-69
2022/07/16 04:32:17;;;;;;;5.30;3.47;;;;;;;15.50;61.52;98566.22;5053906;28;20296;-69
2022/07/16 04:34:44;;;;;;;4.17;3.13;;;;;;;15.57;61.25;98566.09;5053749;28;20291;-70
2022/07/16 04:37:10;;;;;;;4.00;2.90;;;;;;;15.54;61.79;98564.72;5053302;28;20211;-69
2022/07/16 04:39:37;;;;;;;5.57;3.70;;;;;;;15.61;62.33;98565.38;5053613;28;20307;-69
2022/07/16 04:42:03;;;;;;;5.17;3.70;;;;;;;15.72;62.59;98577.94;5053513;28;20205;-70
2022/07/16 04:44:30;;;;;;;5.43;4.00;;;;;;;15.72;62.71;98577.09;5053539;28;20292;-70
2022/07/16 04:46:56;;;;;;;4.83;4.23;;;;;;;15.80;62.87;98566.00;5053245;28;20209;-70
2022/07/16 04:49:23;;;;;;;5.33;4.73;;;;;;;15.84;63.43;98573.31;5053330;28;20239;-69
2022/07/16 04:51:49;;;;;;;5.20;4.30;;;;;;;15.93;63.48;98571.09;5053482;28;20296;-70
2022/07/16 04:54:16;;;;;;;6.23;4.70;;;;;;;15.94;62.94;98568.16;5053203;28;20767;-69
2022/07/16 04:56:42;;;;;;;4.83;4.30;;;;;;;16.01;63.37;98571.50;5053288;28;20304;-69
2022/07/16 04:59:08;;;;;;;7.23;5.20;;;;;;;16.05;63.47;98572.66;5052976;28;20591;-70
2022/07/16 05:01:35;;;;;;;6.47;5.23;;;;;;;16.08;63.31;98574.03;5053325;28;20292;-70
2022/07/16 05:04:02;;;;;;;5.67;5.17;;;;;;;16.14;63.39;98581.94;5053327;28;20316;-70
2022/07/16 05:06:28;;;;;;;5.17;4.30;;;;;;;16.19;63.68;98584.69;5053065;28;20221;-69
2022/07/16 05:08:56;;;;;;;6.87;4.97;;;;;;;16.48;62.27;98578.28;5052841;28;20236;-70
2022/07/16 05:11:23;;;;;;;7.07;4.80;;;;;;;16.92;60.81;98571.16;5053112;28;20620;-70
2022/07/16 05:13:52;;;;;;;8.67;5.20;;;;;;;17.69;58.52;98578.91;5053223;28;20295;-70
2022/07/16 05:16:18;;;;;;;11.43;5.30;;;;;;;17.71;58.51;98568.75;5053164;28;20201;-70
2022/07/16 05:18:45;;;;;;;6.93;4.90;;;;;;;17.75;58.34;98579.78;5053018;28;20317;-70
2022/07/16 05:21:11;;;;;;;7.17;4.93;;;;;;;17.66;59.24;98582.13;5053006;28;20205;-70
2022/07/16 05:23:37;;;;;;;7.17;4.97;;;;;;;17.71;58.67;98584.88;5052607;28;20300;-70
2022/07/16 05:26:04;;;;;;;5.40;4.43;;;;;;;17.80;57.91;98582.53;5053052;28;20216;-70
2022/07/16 05:28:30;;;;;;;5.37;4.73;;;;;;;18.58;55.27;98580.91;5052633;28;20301;-70
2022/07/16 05:30:57;;;;;;;5.17;4.47;;;;;;;18.65;55.34;98588.78;5053131;28;20209;-70
2022/07/16 05:33:23;;;;;;;7.07;4.83;;;;;;;18.52;54.59;98583.81;5052742;28;20300;-70
2022/07/16 05:35:50;;;;;;;5.90;4.23;;;;;;;18.31;54.67;98584.69;5052761;28;20668;-70
2022/07/16 05:38:16;;;;;;;5.83;4.40;;;;;;;18.19;55.74;98584.84;5052683;28;20205;-70
2022/07/16 05:40:43;;;;;;;4.93;4.43;;;;;;;18.52;54.78;98581.13;5052125;28;20646;-70
2022/07/16 05:43:09;;;;;;;7.87;4.40;;;;;;;18.14;55.00;98592.06;5053269;28;20227;-70
2022/07/16 05:45:36;;;;;;;5.80;4.80;;;;;;;18.20;55.39;98591.88;5053239;28;20201;-70
2022/07/16 05:48:02;;;;;;;5.93;4.07;;;;;;;18.32;54.78;98595.19;5052332;28;20258;-70
2022/07/16 05:50:29;;;;;;;7.47;4.53;;;;;;;18.21;54.96;98593.50;5052806;28;20205;-70
2022/07/16 05:52:55;;;;;;;6.43;4.17;;;;;;;18.28;55.15;98594.06;5052898;28;20304;-70
2022/07/16 05:55:22;;;;;;;7.83;4.27;;;;;;;18.43;54.05;98593.44;5052405;28;20210;-70
2022/07/16 05:57:48;;;;;;;5.50;4.33;;;;;;;18.23;53.85;98590.53;5052820;28;20680;-70
2022/07/16 06:00:15;;;;;;;5.10;3.40;;;;;;;18.32;52.18;98586.31;5052209;28;20324;-70
2022/07/16 06:02:42;;;;;;;4.33;3.40;;;;;;;18.52;52.16;98591.91;5052640;28;20201;-70
2022/07/16 06:05:09;;;;;;;6.07;3.90;;;;;;;18.34;51.33;98589.59;5052304;28;20212;-70
2022/07/16 06:07:35;;;;;;;6.13;4.20;;;;;;;18.38;52.67;98594.22;5051869;28;20676;-70
2022/07/16 06:10:02;;;;;;;5.60;3.60;;;;;;;18.52;52.15;98586.53;5054471;28;20606;-70
2022/07/16 06:12:28;;;;;;;7.00;3.57;;;;;;;18.81;51.57;98601.28;5056109;28;20295;-70
2022/07/16 06:14:55;;;;;;;5.60;3.73;;;;;;;18.89;50.29;98595.44;5056367;28;20205;-70
2022/07/16 06:17:21;;;;;;;4.07;3.63;;;;;;;18.70;50.20;98602.28;5056342;28;20209;-70
2022/07/16 06:19:47;;;;;;;6.90;3.20;;;;;;;18.74;48.69;98593.41;5056149;28;20279;-70
2022/07/16 06:22:14;;;;;;;6.37;3.20;;;;;;;18.54;50.50;98592.44;5056676;28;20209;-70
2022/07/16 06:24:40;;;;;;;5.80;3.17;;;;;;;18.62;50.14;98590.13;5055954;28;20205;-70
2022/07/16 06:27:07;;;;;;;7.73;3.00;;;;;;;18.72;49.41;98590.19;5056817;28;20323;-70
2022/07/16 06:29:33;;;;;;;6.77;3.00;;;;;;;18.78;48.50;98602.63;5056008;28;20316;-70
2022/07/16 06:32:00;;;;;;;4.00;2.20;;;;;;;18.85;47.09;98603.22;5055806;28;20691;-70
2022/07/16 06:34:26;;;;;;;3.70;2.30;;;;;;;18.62;44.88;98608.97;5056047;28;20300;-70
2022/07/16 06:36:52;;;;;;;4.30;2.30;;;;;;;18.50;46.00;98611.00;5056085;28;20292;-70
2022/07/16 06:39:19;;;;;;;3.57;2.40;;;;;;;18.56;45.67;98611.88;5055862;28;20311;-70
2022/07/16 06:41:45;;;;;;;5.50;2.13;;;;;;;18.70;45.64;98616.59;5055477;28;20213;-70
2022/07/16 06:44:11;;;;;;;3.60;2.30;;;;;;;18.54;45.51;98609.44;5055642;28;20304;-70
2022/07/16 06:46:38;;;;;;;4.27;2.37;;;;;;;18.43;46.45;98615.81;5055206;28;20210;-70
2022/07/16 06:49:04;;;;;;;6.63;2.60;;;;;;;18.68;46.17;98613.31;5055335;28;20239;-70
2022/07/16 06:51:31;;;;;;;4.80;2.27;;;;;;;19.11;45.27;98617.69;5055192;28;20209;-70
2022/07/16 06:53:57;;;;;;;3.40;2.20;;;;;;;19.29;46.35;98610.03;5055571;28;20212;-70
2022/07/16 06:56:24;;;;;;;4.53;2.20;;;;;;;19.42;45.22;98612.22;5055461;28;20284;-70
2022/07/16 06:58:50;;;;;;;2.93;2.00;;;;;;;18.86;45.57;98615.63;5054961;28;20679;-70
2022/07/16 07:01:17;;;;;;;2.90;2.20;;;;;;;19.24;45.77;98611.88;5055290;28;20281;-70
2022/07/16 07:03:43;;;;;;;3.73;2.67;;;;;;;19.58;45.44;98617.72;5055027;28;20262;-70
2022/07/16 07:06:10;;;;;;;4.77;2.50;;;;;;;19.72;45.46;98622.38;5054602;28;20211;-70
2022/07/16 07:08:36;;;;;;;6.07;2.60;;;;;;;19.76;46.19;98628.06;5054960;28;20240;-70
2022/07/16 07:11:04;;;;;;;5.03;2.70;;;;;;;19.91;46.20;98622.69;5054967;28;20304;-70
2022/07/16 07:13:30;;;;;;;2.97;2.33;;;;;;;19.85;46.40;98623.78;5054994;28;20561;-70
2022/07/16 07:15:58;;;;;;;9.90;3.03;;;;;;;20.16;45.10;98629.00;5055628;28;20255;-70
2022/07/16 07:18:25;;;;;;;4.03;2.57;;;;;;;20.29;44.89;98624.97;5054696;28;20259;-70
2022/07/16 07:20:51;;;;;;;6.03;3.10;;;;;;;20.19;45.47;98628.50;5055381;28;20278;-70
2022/07/16 07:23:18;;;;;;;3.80;3.13;;;;;;;19.95;45.21;98630.03;5054094;28;20201;-70
2022/07/16 07:25:44;;;;;;;4.23;2.90;;;;;;;20.01;44.64;98628.94;5054619;28;20231;-70
2022/07/16 07:28:11;;;;;;;5.00;2.63;;;;;;;20.14;44.54;98622.25;5054353;28;20232;-70
2022/07/16 07:30:38;;;;;;;4.57;2.47;;;;;;;20.59;44.51;98633.16;5054747;28;20295;-69
2022/07/16 07:33:04;;;;;;;4.87;2.70;;;;;;;20.47;44.23;98636.09;5054600;28;20212;-69
2022/07/16 07:35:30;;;;;;;3.57;2.33;;;;;;;20.57;43.92;98633.41;5054826;28;20292;-70
2022/07/16 07:37:58;;;;;;;4.27;2.10;;;;;;;20.70;43.75;98626.69;5054373;28;20583;-69
2022/07/16 07:40:24;;;;;;;3.47;2.37;;;;;;;20.77;43.09;98633.44;5054378;28;20209;-69
2022/07/16 07:42:51;;;;;;;4.83;2.40;;;;;;;20.82;42.83;98621.81;5054859;28;20347;-69
2022/07/16 07:45:17;;;;;;;5.20;2.60;;;;;;;20.82;43.01;98629.91;5054356;28;20205;-69
2022/07/16 07:47:43;;;;;;;4.00;2.13;;;;;;;20.95;41.42;98624.81;5054215;28;20212;-70
2022/07/16 07:50:10;;;;;;;3.43;2.07;;;;;;;21.10;41.89;98626.69;5053955;28;20692;-69
2022/07/16 07:52:36;;;;;;;5.80;2.10;;;;;;;21.07;41.29;98619.13;5054021;28;20213;-69
2022/07/16 07:55:03;;;;;;;3.47;2.10;;;;;;;21.16;40.82;98622.91;5054226;28;20299;-70
2022/07/16 07:57:30;;;;;;;2.53;2.07;;;;;;;21.38;40.12;98615.28;5054364;28;20209;-70
2022/07/16 07:59:56;;;;;;;4.93;1.90;;;;;;;21.03;40.33;98620.75;5053859;28;20244;-69
2022/07/16 08:02:22;;;;;;;3.63;2.43;;;;;;;21.29;40.73;98616.94;5054078;28;20296;-70
2022/07/16 08:04:49;;;;;;;2.27;2.00;;;;;;;21.15;40.01;98619.38;5053820;28;20668;-69
2022/07/16 08:07:15;;;;;;;2.03;1.53;;;;;;;21.43;39.75;98624.19;5053915;28;20209;-70
2022/07/16 08:09:42;;;;;;;2.77;1.90;;;;;;;21.54;37.74;98616.84;5053848;28;20312;-69
2022/07/16 08:12:08;;;;;;;4.43;1.80;;;;;;;20.89;38.76;98625.06;5053587;28;20209;-69
2022/07/16 08:14:35;;;;;;;5.00;1.83;;;;;;;21.21;39.33;98617.47;5053746;28;20295;-69
2022/07/16 08:17:01;;;;;;;3.03;1.70;;;;;;;21.53;37.99;98615.22;5054000;28;20288;-69
2022/07/16 08:19:30;;;;;;;2.43;1.73;;;;;;;21.46;37.79;98626.34;5053777;28;20225;-70
2022/07/16 08:21:57;;;;;;;3.93;1.67;;;;;;;21.42;36.55;98619.03;5053362;28;20304;-69
2022/07/16 08:27:07;;;;;;;4.63;1.87;;;;;;;21.50;37.10;98613.88;5053288;28;20177;-70
2022/07/16 08:29:34;;;;;;;3.57;1.57;;;;;;;21.14;37.05;98611.53;5053407;28;20237;-70
2022/07/16 08:32:00;;;;;;;3.93;1.90;;;;;;;21.69;36.97;98622.19;5052917;28;20292;-70
2022/07/16 08:34:27;;;;;;;5.77;1.67;;;;;;;21.91;36.39;98614.56;5053275;28;20288;-70
2022/07/16 08:36:54;;;;;;;3.13;1.60;;;;;;;21.89;36.66;98611.34;5053377;28;20300;-70
2022/07/16 08:39:20;;;;;;;2.10;1.60;;;;;;;21.65;35.87;98616.53;5053488;28;20225;-70
2022/07/16 08:41:48;;;;;;;2.63;1.87;;;;;;;21.75;35.53;98613.81;5053458;28;20292;-69
2022/07/16 08:44:15;;;;;;;4.27;1.67;;;;;;;22.04;34.77;98624.78;5053045;28;20208;-70
2022/07/16 08:46:43;;;;;;;2.10;1.57;;;;;;;22.11;35.26;98622.59;5053922;28;20205;-70
2022/07/16 08:49:09;;;;;;;3.67;1.60;;;;;;;21.50;35.65;98623.91;5053255;28;20229;-70
2022/07/16 08:51:39;;;;;;;3.83;1.73;;;;;;;22.09;35.63;98620.16;5053056;28;20201;-70
2022/07/16 08:54:11;;;;;;;1.87;1.47;;;;;;;22.02;35.87;98624.28;5053222;28;20228;-70
2022/07/16 08:56:37;;;;;;;2.87;1.60;;;;;;;22.17;34.13;98621.47;5053727;28;20185;-69
2022/07/16 08:59:05;;;;;;;2.97;1.50;;;;;;;22.02;34.94;98625.06;5052791;28;20239;-69
2022/07/16 09:01:33;;;;;;;3.23;1.77;;;;;;;22.43;35.99;98614.81;5053093;28;20213;-69
2022/07/16 09:04:01;;;;;;;2.00;1.80;;;;;;;22.39;34.94;98627.31;5052798;28;20751;-70
2022/07/16 09:06:28;;;;;;;3.60;1.43;;;;;;;21.79;34.17;98628.41;5053237;28;20205;-70
2022/07/16 09:08:55;;;;;;;1.30;1.20;;;;;;;22.00;35.47;98616.44;5052750;28;20803;-70
2022/07/16 09:11:27;;;;;;;3.33;1.60;;;;;;;22.31;34.97;98627.88;5052714;28;20663;-69
2022/07/16 09:14:02;;;;;;;3.37;1.50;;;;;;;22.61;34.95;98628.53;5052554;28;20296;-69
2022/07/16 09:16:46;;;;;;;3.33;1.73;;;;;;;22.56;35.57;98628.56;5052767;28;20258;-70
2022/07/16 09:19:15;;;;;;;2.47;1.67;;;;;;;22.34;33.76;98625.44;5052562;28;20252;-70
2022/07/16 09:22:05;;;;;;;1.73;1.60;;;;;;;22.42;34.50;98622.13;5053057;28;20240;-69
2022/07/16 09:24:33;;;;;;;1.98;1.23;;;;;;;22.86;33.73;98622.09;5052068;28;20707;-70
2022/07/16 09:27:19;;;;;;;3.30;1.40;;;;;;;22.99;33.28;98635.81;5052565;28;20564;-70
2022/07/16 09:29:52;;;;;;;4.35;1.65;;;;;;;22.64;34.65;98630.69;5052762;28;20228;-69
2022/07/16 09:32:36;;;;;;;2.55;1.45;;;;;;;23.05;34.11;98631.16;5052995;28;20609;-69
2022/07/16 09:35:11;;;;;;;2.67;1.50;;;;;;;22.94;34.77;98630.44;5052928;28;20510;-69
2022/07/16 09:37:55;;;;;;;1.67;1.50;;;;;;;23.19;33.69;98632.13;5053017;28;20205;-70
2022/07/16 09:40:42;;;;;;;4.00;1.98;;;;;;;23.41;33.71;98632.44;5052617;28;20271;-70
2022/07/16 09:43:14;;;;;;;4.32;1.58;;;;;;;22.91;33.82;98650.00;5052652;28;20196;-69
2022/07/16 09:45:43;;;;;;;2.45;1.40;;;;;;;22.75;33.30;98629.50;5055771;28;20232;-70
2022/07/16 09:48:22;;;;;;;2.88;1.50;;;;;;;23.07;34.25;98631.69;5056391;28;20664;-69
2022/07/16 09:50:49;;;;;;;3.57;1.50;;;;;;;23.25;33.62;98623.66;5056699;28;20564;-70
2022/07/16 09:53:18;;;;;;;2.35;1.75;;;;;;;23.17;33.37;98628.88;5056212;28;20209;-69
2022/07/16 09:56:05;;;;;;;2.80;1.70;;;;;;;22.66;34.22;98633.91;5056114;28;20544;-69
2022/07/16 09:58:33;;;;;;;1.98;1.55;;;;;;;23.05;33.67;98623.00;5056035;28;20232;-69
2022/07/16 10:01:01;;;;;;;3.75;1.63;;;;;;;22.78;33.78;98622.69;5056231;28;20277;-69
2022/07/16 10:03:29;;;;;;;3.83;1.65;;;;;;;22.99;32.98;98616.84;5056621;28;20280;-69
2022/07/16 10:05:55;;;;;;;2.35;1.58;;;;;;;23.59;32.99;98620.84;5056335;28;20211;-69
2022/07/16 10:08:22;;;;;;;3.00;1.50;;;;;;;23.07;32.58;98624.34;5056204;28;20225;-69
2022/07/16 10:10:49;;;;;;;3.17;1.70;;;;;;;23.32;33.54;98617.88;5055986;28;20257;-69
2022/07/16 10:13:17;;;;;;;4.90;1.70;;;;;;;22.96;33.07;98635.56;5055874;28;20209;-69
2022/07/16 10:15:46;;;;;;;2.70;1.57;;;;;;;22.83;33.29;98639.75;5055843;28;20311;-69
2022/07/16 10:18:34;;;;;;;2.50;1.30;;;;;;;23.47;31.90;98634.03;5056855;28;20304;-69
2022/07/16 10:21:12;;;;;;;3.97;1.60;;;;;;;23.69;31.97;98628.91;5055584;28;20688;-70
2022/07/16 10:23:40;;;;;;;2.17;1.50;;;;;;;23.66;32.14;98622.13;5056174;28;20564;-69
2022/07/16 10:26:18;;;;;;;2.90;1.55;;;;;;;23.81;32.05;98621.97;5055971;28;20205;-70
2022/07/16 10:28:51;;;;;;;2.97;1.70;;;;;;;24.07;32.20;98622.47;5055365;28;20806;-69
2022/07/16 10:32:26;;;;;;;4.82;1.67;;;;;;;24.10;31.11;98630.06;5055813;28;20205;-70
2022/07/16 10:34:41;;;;;;;4.82;1.88;;;;;;;23.89;31.88;98621.31;5055499;28;20205;-70
2022/07/16 10:37:24;;;;;;;3.83;1.55;;;;;;;23.91;30.90;98624.56;5055722;28;20537;-70
2022/07/16 10:40:03;;;;;;;2.33;1.60;;;;;;;23.96;30.67;98631.84;5055615;28;20259;-70
2022/07/16 10:42:30;;;;;;;3.17;1.73;;;;;;;23.60;31.51;98625.22;5055209;28;20272;-70
2022/07/16 10:44:56;;;;;;;3.10;1.38;;;;;;;23.64;31.98;98615.38;5055159;28;20292;-69
2022/07/16 10:47:43;;;;;;;2.17;1.40;;;;;;;23.31;31.45;98616.28;5054632;28;20687;-70
2022/07/16 10:50:14;;;;;;;5.63;1.42;;;;;;;23.44;31.77;98623.75;5055035;28;20240;-70
2022/07/16 10:52:42;;;;;;;3.97;1.85;;;;;;;23.37;32.69;98625.97;5055824;28;20211;-70
2022/07/16 10:55:09;;;;;;;2.85;1.75;;;;;;;23.93;31.66;98627.78;5054785;28;20216;-69
2022/07/16 10:57:37;;;;;;;4.47;1.58;;;;;;;24.38;31.24;98620.97;5054820;28;20706;-69
2022/07/16 11:00:06;;;;;;;2.33;1.10;;;;;;;24.52;29.91;98627.25;5055007;28;20233;-70
2022/07/16 11:02:39;;;;;;;1.85;1.48;;;;;;;24.53;29.66;98621.53;5055117;28;20217;-70
2022/07/16 11:05:06;;;;;;;2.85;1.50;;;;;;;24.32;31.05;98622.09;5055329;28;20194;-70
2022/07/16 11:07:35;;;;;;;2.05;1.58;;;;;;;24.63;30.52;98628.75;5055110;28;20212;-70
2022/07/16 11:10:02;;;;;;;2.65;1.60;;;;;;;24.71;30.61;98625.38;5055003;28;20225;-70
2022/07/16 11:12:32;;;;;;;3.90;1.55;;;;;;;24.78;29.87;98628.53;5054741;28;20699;-69
2022/07/16 11:15:00;;;;;;;2.88;1.40;;;;;;;23.67;30.01;98631.91;5054756;28;20740;-70
2022/07/16 11:17:30;;;;;;;1.23;1.08;;;;;;;23.32;29.69;98623.31;5055144;28;20288;-70
2022/07/16 11:19:59;;;;;;;2.17;1.38;;;;;;;23.64;30.06;98618.91;5054714;28;20323;-70
2022/07/16 11:22:28;;;;;;;2.92;1.63;;;;;;;23.85;29.76;98627.59;5054137;28;20213;-70
2022/07/16 11:24:58;;;;;;;2.55;1.27;;;;;;;23.69;30.63;98613.41;5053934;28;20579;-69
2022/07/16 11:27:38;;;;;;;1.60;1.40;;;;;;;24.40;30.83;98614.13;5054769;28;20221;-69
2022/07/16 11:30:08;;;;;;;3.35;1.27;;;;;;;24.64;29.53;98623.03;5054775;28;20272;-69
2022/07/16 11:32:55;;;;;;;2.75;1.35;;;;;;;24.25;29.46;98627.13;5054803;28;20209;-70
2022/07/16 11:35:21;;;;;;;3.88;1.23;;;;;;;24.62;29.03;98625.25;5054679;28;20276;-69
2022/07/16 11:37:58;;;;;;;1.92;1.42;;;;;;;24.63;29.19;98623.31;5054566;28;20205;-70
2022/07/16 11:40:35;;;;;;;3.22;1.50;;;;;;;24.72;28.69;98621.53;5054513;28;20196;-69
2022/07/16 11:43:01;;;;;;;2.30;1.10;;;;;;;24.77;29.47;98625.00;5054546;28;20274;-70
2022/07/16 11:45:29;;;;;;;3.10;1.30;;;;;;;24.77;29.21;98618.72;5054074;28;20212;-70